createdAt,value
2017-12-27T00:00:06.845Z,3.00
2017-12-27T00:01:06.840Z,3.20
2017-12-27T00:02:06.832Z,3.40
2017-12-27T00:03:06.824Z,2.80
2017-12-27T00:04:06.823Z,3.10
2017-12-27T00:05:06.810Z,3.00
2017-12-27T00:06:06.803Z,2.90
2017-12-27T00:07:06.795Z,2.90
2017-12-27T00:08:06.789Z,3.10
2017-12-27T00:09:06.781Z,2.70
2017-12-27T00:10:06.774Z,3.40
2017-12-27T00:11:06.768Z,2.80
2017-12-27T00:12:06.760Z,3.50
2017-12-27T00:13:06.754Z,2.60
2017-12-27T00:14:06.746Z,2.40
2017-12-27T00:15:06.739Z,3.70
2017-12-27T00:16:06.731Z,3.10
2017-12-27T00:17:06.726Z,3.00
2017-12-27T00:18:06.716Z,3.50
2017-12-27T00:19:06.709Z,3.30
2017-12-27T00:20:06.704Z,3.10
2017-12-27T00:21:06.696Z,4.20
2017-12-27T00:22:06.689Z,4.30
2017-12-27T00:23:06.683Z,4.60
2017-12-27T00:24:06.675Z,4.10
2017-12-27T00:25:06.668Z,3.30
2017-12-27T00:26:06.660Z,3.50
2017-12-27T00:27:06.654Z,3.60
2017-12-27T00:28:06.647Z,3.90
2017-12-27T00:29:06.639Z,2.90
2017-12-27T00:30:06.632Z,2.90
2017-12-27T00:31:06.624Z,2.40
2017-12-27T00:32:06.617Z,3.50
2017-12-27T00:33:06.611Z,2.90
2017-12-27T00:34:06.602Z,3.90
2017-12-27T00:35:06.596Z,3.00
2017-12-27T00:36:06.588Z,3.10
2017-12-27T00:37:06.581Z,2.80
2017-12-27T00:38:06.574Z,3.40
2017-12-27T00:39:06.566Z,3.40
2017-12-27T00:40:06.559Z,3.00
2017-12-27T00:41:06.552Z,2.80
2017-12-27T00:42:06.545Z,2.80
2017-12-27T00:43:06.537Z,2.60
2017-12-27T00:44:06.531Z,2.80
2017-12-27T00:45:06.524Z,3.00
2017-12-27T00:46:06.515Z,3.10
2017-12-27T00:47:06.508Z,2.70
2017-12-27T00:48:06.501Z,3.30
2017-12-27T00:49:06.494Z,3.40
2017-12-27T00:50:06.486Z,3.40
2017-12-27T00:51:06.481Z,3.40
2017-12-27T00:52:06.472Z,2.80
2017-12-27T00:53:06.466Z,2.40
2017-12-27T00:54:06.458Z,3.10
2017-12-27T00:55:06.450Z,3.10
2017-12-27T00:56:06.445Z,2.40
2017-12-27T00:57:06.442Z,2.60
2017-12-27T00:58:06.430Z,2.90
2017-12-27T00:59:06.423Z,3.10
2017-12-27T01:00:06.415Z,3.00
2017-12-27T01:01:06.408Z,2.80
2017-12-27T01:02:06.401Z,3.10
2017-12-27T01:03:06.392Z,3.10
2017-12-27T01:04:06.387Z,3.20
2017-12-27T01:05:06.378Z,2.90
2017-12-27T01:06:06.371Z,3.30
2017-12-27T01:07:06.363Z,3.10
2017-12-27T01:08:06.357Z,2.80
2017-12-27T01:09:06.350Z,2.80
2017-12-27T01:10:06.341Z,3.20
2017-12-27T01:11:06.334Z,2.30
2017-12-27T01:12:06.327Z,2.70
2017-12-27T01:13:06.320Z,2.80
2017-12-27T01:14:06.313Z,2.40
2017-12-27T01:15:06.305Z,2.60
2017-12-27T01:16:06.299Z,3.10
2017-12-27T01:17:06.291Z,2.50
2017-12-27T01:18:06.283Z,2.50
2017-12-27T01:19:06.276Z,2.40
2017-12-27T01:20:06.268Z,2.80
2017-12-27T01:21:06.261Z,2.50
2017-12-27T01:22:06.252Z,2.30
2017-12-27T01:23:06.245Z,2.20
2017-12-27T01:24:06.238Z,2.10
2017-12-27T01:25:06.231Z,2.70
2017-12-27T01:26:06.223Z,2.50
2017-12-27T01:27:06.216Z,2.20
2017-12-27T01:28:06.210Z,2.70
2017-12-27T01:29:06.203Z,2.20
2017-12-27T01:30:06.194Z,2.40
2017-12-27T01:31:06.187Z,2.20
2017-12-27T01:32:06.183Z,2.10
2017-12-27T01:33:06.174Z,2.60
2017-12-27T01:34:06.165Z,1.90
2017-12-27T01:35:06.158Z,2.10
2017-12-27T01:36:06.152Z,2.10
2017-12-27T01:37:06.144Z,2.10
2017-12-27T01:38:06.136Z,2.70
2017-12-27T01:39:06.129Z,1.90
2017-12-27T01:40:06.123Z,2.30
2017-12-27T01:41:06.115Z,2.00
2017-12-27T01:42:06.107Z,2.40
2017-12-27T01:43:06.102Z,2.40
2017-12-27T01:44:06.094Z,2.20
2017-12-27T01:45:06.088Z,1.70
2017-12-27T01:46:06.079Z,2.00
2017-12-27T01:47:06.071Z,2.20
2017-12-27T01:48:06.065Z,2.20
2017-12-27T01:49:06.057Z,2.10
2017-12-27T01:50:06.050Z,2.00
2017-12-27T01:51:06.043Z,2.10
2017-12-27T01:52:06.040Z,1.90
2017-12-27T01:53:06.029Z,1.60
2017-12-27T01:54:06.021Z,1.90
2017-12-27T01:55:06.015Z,2.00
2017-12-27T01:56:06.008Z,2.10
2017-12-27T01:57:06.000Z,2.40
2017-12-27T01:58:05.992Z,1.80
2017-12-27T01:59:05.986Z,2.20
2017-12-27T02:00:05.979Z,1.80
2017-12-27T02:01:05.973Z,1.90
2017-12-27T02:02:05.964Z,2.00
2017-12-27T02:03:05.957Z,1.70
2017-12-27T02:04:05.952Z,2.10
2017-12-27T02:05:05.945Z,2.10
2017-12-27T02:06:05.936Z,2.10
2017-12-27T02:07:05.928Z,2.10
2017-12-27T02:08:05.923Z,1.90
2017-12-27T02:09:05.914Z,2.00
2017-12-27T02:10:05.907Z,1.90
2017-12-27T02:11:05.900Z,2.30
2017-12-27T02:12:05.894Z,2.00
2017-12-27T02:13:05.886Z,1.40
2017-12-27T02:14:05.882Z,2.20
2017-12-27T02:15:05.872Z,1.70
2017-12-27T02:16:05.865Z,1.90
2017-12-27T02:17:05.859Z,1.70
2017-12-27T02:18:05.850Z,2.00
2017-12-27T02:19:05.843Z,1.70
2017-12-27T02:20:05.837Z,2.10
2017-12-27T02:21:05.830Z,1.80
2017-12-27T02:22:05.823Z,1.70
2017-12-27T02:23:05.816Z,1.70
2017-12-27T02:24:05.809Z,1.90
2017-12-27T02:25:05.803Z,1.70
2017-12-27T02:26:05.794Z,1.70
2017-12-27T02:27:05.786Z,1.90
2017-12-27T02:28:05.781Z,2.00
2017-12-27T02:29:05.773Z,2.20
2017-12-27T02:30:05.766Z,1.90
2017-12-27T02:31:05.759Z,2.10
2017-12-27T02:32:05.752Z,2.60
2017-12-27T02:33:05.745Z,1.70
2017-12-27T02:34:05.737Z,1.70
2017-12-27T02:35:05.731Z,1.80
2017-12-27T02:36:05.723Z,2.10
2017-12-27T02:37:05.716Z,2.10
2017-12-27T02:38:05.710Z,2.10
2017-12-27T02:39:05.703Z,2.20
2017-12-27T02:40:05.695Z,2.10
2017-12-27T02:41:05.688Z,1.70
2017-12-27T02:42:05.680Z,1.60
2017-12-27T02:43:05.674Z,1.90
2017-12-27T02:44:05.666Z,1.80
2017-12-27T02:45:05.659Z,2.30
2017-12-27T02:46:05.652Z,1.60
2017-12-27T02:47:05.644Z,2.20
2017-12-27T02:48:05.638Z,2.00
2017-12-27T02:49:05.630Z,2.20
2017-12-27T02:50:05.624Z,1.90
2017-12-27T02:51:05.616Z,1.70
2017-12-27T02:52:05.608Z,2.30
2017-12-27T02:53:05.601Z,2.90
2017-12-27T02:54:05.594Z,3.40
2017-12-27T02:55:05.588Z,2.50
2017-12-27T02:56:05.581Z,1.80
2017-12-27T02:57:05.573Z,2.20
2017-12-27T02:58:05.565Z,2.00
2017-12-27T02:59:05.558Z,2.10
2017-12-27T03:00:05.550Z,2.20
2017-12-27T03:01:05.543Z,1.70
2017-12-27T03:02:05.536Z,2.40
2017-12-27T03:03:05.528Z,2.00
2017-12-27T03:04:05.524Z,1.60
2017-12-27T03:05:05.515Z,2.10
2017-12-27T03:06:05.506Z,2.30
2017-12-27T03:07:05.499Z,2.50
2017-12-27T03:08:05.492Z,2.80
2017-12-27T03:09:05.486Z,2.40
2017-12-27T03:10:05.480Z,3.20
2017-12-27T03:11:05.472Z,1.70
2017-12-27T03:12:05.464Z,1.80
2017-12-27T03:13:05.457Z,1.90
2017-12-27T03:14:05.449Z,1.60
2017-12-27T03:15:05.441Z,1.60
2017-12-27T03:16:05.434Z,2.10
2017-12-27T03:17:05.428Z,2.40
2017-12-27T03:18:05.420Z,2.00
2017-12-27T03:19:05.414Z,2.60
2017-12-27T03:20:05.406Z,2.10
2017-12-27T03:21:05.399Z,1.90
2017-12-27T03:22:05.394Z,1.90
2017-12-27T03:23:05.384Z,2.40
2017-12-27T03:24:05.376Z,2.00
2017-12-27T03:25:05.370Z,1.90
2017-12-27T03:26:05.362Z,1.80
2017-12-27T03:27:05.356Z,1.80
2017-12-27T03:28:05.348Z,1.60
2017-12-27T03:29:05.342Z,1.60
2017-12-27T03:30:05.334Z,1.70
2017-12-27T03:31:05.327Z,2.00
2017-12-27T03:32:05.319Z,2.10
2017-12-27T03:33:05.313Z,2.00
2017-12-27T03:34:05.303Z,2.00
2017-12-27T03:35:05.296Z,2.10
2017-12-27T03:36:05.294Z,2.30
2017-12-27T03:37:05.284Z,2.20
2017-12-27T03:38:05.274Z,1.90
2017-12-27T03:39:05.267Z,2.10
2017-12-27T03:40:05.261Z,2.10
2017-12-27T03:41:05.253Z,2.00
2017-12-27T03:42:05.245Z,1.90
2017-12-27T03:43:05.238Z,2.00
2017-12-27T03:44:05.231Z,2.50
2017-12-27T03:45:05.224Z,2.30
2017-12-27T03:46:05.214Z,2.00
2017-12-27T03:47:05.208Z,2.00
2017-12-27T03:48:05.200Z,1.60
2017-12-27T03:49:05.198Z,2.00
2017-12-27T03:50:05.186Z,2.50
2017-12-27T03:51:05.177Z,2.10
2017-12-27T03:52:05.172Z,2.10
2017-12-27T03:53:05.163Z,2.10
2017-12-27T03:54:05.155Z,2.00
2017-12-27T03:55:05.149Z,1.80
2017-12-27T03:56:05.140Z,2.00
2017-12-27T03:57:05.133Z,3.00
2017-12-27T03:58:05.126Z,3.10
2017-12-27T03:59:05.124Z,2.20
2017-12-27T04:00:05.111Z,2.30
2017-12-27T04:01:05.105Z,3.60
2017-12-27T04:02:05.096Z,2.50
2017-12-27T04:03:05.111Z,2.30
2017-12-27T04:04:05.082Z,2.80
2017-12-27T04:05:05.074Z,2.00
2017-12-27T04:06:05.067Z,2.40
2017-12-27T04:07:05.059Z,2.30
2017-12-27T04:08:05.052Z,2.30
2017-12-27T04:09:05.046Z,2.30
2017-12-27T04:10:05.037Z,2.30
2017-12-27T04:11:05.030Z,2.40
2017-12-27T04:12:05.024Z,2.10
2017-12-27T04:13:05.016Z,2.40
2017-12-27T04:14:05.007Z,3.30
2017-12-27T04:15:05.001Z,3.90
2017-12-27T04:16:04.994Z,2.20
2017-12-27T04:17:04.987Z,2.50
2017-12-27T04:18:04.977Z,2.30
2017-12-27T04:19:04.970Z,2.20
2017-12-27T04:20:04.963Z,2.90
2017-12-27T04:21:04.956Z,2.20
2017-12-27T04:22:04.948Z,2.30
2017-12-27T04:23:04.942Z,2.10
2017-12-27T04:24:04.935Z,2.10
2017-12-27T04:25:04.927Z,2.00
2017-12-27T04:26:04.919Z,2.50
2017-12-27T04:27:04.912Z,2.90
2017-12-27T04:28:04.903Z,2.10
2017-12-27T04:29:04.898Z,2.00
2017-12-27T04:30:04.888Z,2.50
2017-12-27T04:31:04.881Z,2.50
2017-12-27T04:32:04.874Z,2.50
2017-12-27T04:33:04.868Z,2.50
2017-12-27T04:34:04.859Z,2.10
2017-12-27T04:35:04.853Z,2.00
2017-12-27T04:36:04.845Z,2.10
2017-12-27T04:37:04.838Z,2.40
2017-12-27T04:38:04.830Z,4.50
2017-12-27T04:39:04.823Z,9.70
2017-12-27T04:40:04.817Z,3.80
2017-12-27T04:41:04.809Z,5.10
2017-12-27T04:42:04.800Z,8.70
2017-12-27T04:43:04.794Z,4.70
2017-12-27T04:44:04.787Z,3.00
2017-12-27T04:45:04.779Z,3.00
2017-12-27T04:46:04.770Z,5.20
2017-12-27T04:47:04.764Z,4.70
2017-12-27T04:48:04.758Z,3.40
2017-12-27T04:49:04.751Z,2.60
2017-12-27T04:50:04.741Z,2.60
2017-12-27T04:51:04.733Z,2.20
2017-12-27T04:52:04.729Z,2.60
2017-12-27T04:53:04.720Z,2.40
2017-12-27T04:54:04.713Z,1.80
2017-12-27T04:55:04.704Z,2.10
2017-12-27T04:56:04.696Z,2.30
2017-12-27T04:57:04.690Z,2.30
2017-12-27T04:58:04.682Z,1.80
2017-12-27T04:59:04.674Z,2.40
2017-12-27T05:00:04.668Z,2.10
2017-12-27T05:01:04.660Z,2.20
2017-12-27T05:02:04.653Z,2.30
2017-12-27T05:03:04.648Z,2.60
2017-12-27T05:04:04.638Z,3.60
2017-12-27T05:05:04.631Z,2.80
2017-12-27T05:06:04.623Z,3.20
2017-12-27T05:07:04.618Z,2.90
2017-12-27T05:08:04.610Z,2.60
2017-12-27T05:09:04.602Z,2.90
2017-12-27T05:10:04.593Z,2.40
2017-12-27T05:11:04.594Z,2.40
2017-12-27T05:12:04.580Z,2.00
2017-12-27T05:13:04.572Z,2.10
2017-12-27T05:14:04.565Z,2.90
2017-12-27T05:15:04.558Z,2.80
2017-12-27T05:16:04.550Z,2.70
2017-12-27T05:17:04.544Z,3.10
2017-12-27T05:18:04.535Z,4.70
2017-12-27T05:19:04.529Z,4.10
2017-12-27T05:20:04.522Z,3.80
2017-12-27T05:21:04.515Z,2.50
2017-12-27T05:22:04.507Z,2.40
2017-12-27T05:23:04.499Z,2.50
2017-12-27T05:24:04.492Z,2.80
2017-12-27T05:25:04.485Z,2.80
2017-12-27T05:26:04.478Z,2.50
2017-12-27T05:27:04.475Z,2.40
2017-12-27T05:28:04.463Z,2.70
2017-12-27T05:29:04.455Z,3.30
2017-12-27T05:30:04.447Z,3.00
2017-12-27T05:31:04.440Z,2.60
2017-12-27T05:32:04.433Z,2.60
2017-12-27T05:33:04.429Z,2.50
2017-12-27T05:34:04.419Z,2.40
2017-12-27T05:35:04.412Z,2.70
2017-12-27T05:36:04.405Z,2.50
2017-12-27T05:37:04.398Z,2.30
2017-12-27T05:38:04.395Z,2.60
2017-12-27T05:39:04.382Z,2.40
2017-12-27T05:40:04.376Z,2.60
2017-12-27T05:41:04.368Z,2.90
2017-12-27T05:42:04.360Z,3.00
2017-12-27T05:43:04.352Z,2.40
2017-12-27T05:44:04.346Z,2.30
2017-12-27T05:45:04.338Z,2.80
2017-12-27T05:46:04.331Z,2.60
2017-12-27T05:47:04.324Z,2.40
2017-12-27T05:48:04.317Z,2.90
2017-12-27T05:49:04.310Z,2.50
2017-12-27T05:50:04.303Z,2.90
2017-12-27T05:51:04.296Z,2.90
2017-12-27T05:52:04.288Z,2.20
2017-12-27T05:53:04.281Z,2.70
2017-12-27T05:54:04.272Z,2.30
2017-12-27T05:55:04.267Z,2.20
2017-12-27T05:56:04.260Z,1.90
2017-12-27T05:57:04.253Z,2.00
2017-12-27T05:58:04.244Z,2.50
2017-12-27T05:59:04.238Z,2.10
2017-12-27T06:00:04.230Z,2.80
2017-12-27T06:01:04.224Z,3.20
2017-12-27T06:02:04.217Z,2.70
2017-12-27T06:03:04.209Z,2.50
2017-12-27T06:04:04.201Z,2.50
2017-12-27T06:05:04.194Z,2.10
2017-12-27T06:06:04.188Z,2.50
2017-12-27T06:07:04.180Z,2.70
2017-12-27T06:08:04.174Z,2.40
2017-12-27T06:09:04.167Z,2.10
2017-12-27T06:10:04.158Z,2.60
2017-12-27T06:11:04.152Z,2.30
2017-12-27T06:12:04.144Z,2.30
2017-12-27T06:13:04.138Z,2.30
2017-12-27T06:14:04.130Z,2.90
2017-12-27T06:15:04.123Z,2.20
2017-12-27T06:16:04.117Z,1.90
2017-12-27T06:17:04.111Z,2.20
2017-12-27T06:18:04.104Z,2.90
2017-12-27T06:19:04.094Z,2.90
2017-12-27T06:20:04.087Z,2.50
2017-12-27T06:21:04.080Z,2.60
2017-12-27T06:22:04.073Z,2.60
2017-12-27T06:23:04.065Z,2.30
2017-12-27T06:24:04.059Z,2.10
2017-12-27T06:25:04.052Z,2.60
2017-12-27T06:26:04.045Z,2.90
2017-12-27T06:27:04.037Z,3.60
2017-12-27T06:28:04.032Z,4.70
2017-12-27T06:29:04.025Z,2.50
2017-12-27T06:30:04.017Z,2.60
2017-12-27T06:31:04.009Z,2.80
2017-12-27T06:32:04.001Z,3.60
2017-12-27T06:33:03.994Z,3.70
2017-12-27T06:34:03.987Z,2.60
2017-12-27T06:35:03.979Z,3.00
2017-12-27T06:36:03.972Z,2.00
2017-12-27T06:37:03.965Z,2.00
2017-12-27T06:38:03.958Z,2.50
2017-12-27T06:39:03.951Z,2.20
2017-12-27T06:40:03.944Z,2.30
2017-12-27T06:41:03.937Z,3.30
2017-12-27T06:42:03.929Z,2.70
2017-12-27T06:43:03.922Z,2.60
2017-12-27T06:44:03.916Z,2.40
2017-12-27T06:45:03.911Z,2.60
2017-12-27T06:46:03.900Z,2.30
2017-12-27T06:47:03.896Z,2.60
2017-12-27T06:48:03.887Z,2.50
2017-12-27T06:49:03.879Z,2.40
2017-12-27T06:50:03.871Z,2.60
2017-12-27T06:51:03.864Z,3.30
2017-12-27T06:52:03.857Z,3.00
2017-12-27T06:53:03.851Z,6.40
2017-12-27T06:54:03.842Z,3.10
2017-12-27T06:55:03.835Z,2.10
2017-12-27T06:56:03.830Z,1.90
2017-12-27T06:57:03.823Z,1.70
2017-12-27T06:58:03.814Z,1.90
2017-12-27T06:59:03.807Z,1.70
2017-12-27T07:00:03.801Z,2.60
2017-12-27T07:01:03.796Z,2.30
2017-12-27T07:02:03.786Z,1.90
2017-12-27T07:03:03.778Z,2.00
2017-12-27T07:04:03.773Z,2.10
2017-12-27T07:05:03.766Z,1.70
2017-12-27T07:06:03.757Z,2.20
2017-12-27T07:07:03.751Z,2.80
2017-12-27T07:08:03.744Z,2.70
2017-12-27T07:09:03.737Z,3.20
2017-12-27T07:10:03.729Z,3.60
2017-12-27T07:11:03.723Z,2.50
2017-12-27T07:12:03.716Z,1.80
2017-12-27T07:13:03.710Z,1.60
2017-12-27T07:14:03.703Z,1.60
2017-12-27T07:15:03.696Z,1.90
2017-12-27T07:16:03.689Z,2.30
2017-12-27T07:17:03.681Z,1.60
2017-12-27T07:18:03.674Z,2.00
2017-12-27T07:19:03.667Z,1.80
2017-12-27T07:20:03.666Z,1.70
2017-12-27T07:21:03.655Z,1.60
2017-12-27T07:22:03.647Z,1.60
2017-12-27T07:23:03.640Z,2.40
2017-12-27T07:24:03.634Z,2.00
2017-12-27T07:25:03.626Z,1.90
2017-12-27T07:26:03.619Z,1.60
2017-12-27T07:27:03.612Z,2.10
2017-12-27T07:28:03.605Z,2.00
2017-12-27T07:29:03.600Z,1.20
2017-12-27T07:30:03.592Z,1.60
2017-12-27T07:31:03.585Z,1.50
2017-12-27T07:32:03.578Z,1.80
2017-12-27T07:33:03.572Z,2.10
2017-12-27T07:34:03.564Z,1.90
2017-12-27T07:35:03.559Z,1.80
2017-12-27T07:36:03.552Z,2.00
2017-12-27T07:37:03.544Z,1.80
2017-12-27T07:38:03.536Z,2.50
2017-12-27T07:39:03.529Z,2.20
2017-12-27T07:40:03.522Z,1.80
2017-12-27T07:41:03.516Z,1.40
2017-12-27T07:42:03.509Z,2.20
2017-12-27T07:43:03.503Z,2.10
2017-12-27T07:44:03.498Z,2.30
2017-12-27T07:45:03.489Z,1.90
2017-12-27T07:46:03.482Z,1.70
2017-12-27T07:47:03.476Z,1.90
2017-12-27T07:48:03.470Z,1.60
2017-12-27T07:49:03.462Z,2.50
2017-12-27T07:50:03.454Z,2.10
2017-12-27T07:51:03.447Z,2.80
2017-12-27T07:52:03.441Z,1.70
2017-12-27T07:53:03.436Z,1.50
2017-12-27T07:54:03.428Z,1.40
2017-12-27T07:55:03.422Z,1.80
2017-12-27T07:56:03.415Z,1.70
2017-12-27T07:57:03.408Z,2.70
2017-12-27T07:58:03.400Z,2.90
2017-12-27T07:59:03.395Z,2.00
2017-12-27T08:00:03.388Z,2.30
2017-12-27T08:01:03.383Z,2.10
2017-12-27T08:02:03.375Z,2.20
2017-12-27T08:03:03.369Z,2.20
2017-12-27T08:04:03.362Z,2.70
2017-12-27T08:05:03.356Z,2.30
2017-12-27T08:06:03.348Z,1.60
2017-12-27T08:07:03.343Z,2.40
2017-12-27T08:08:03.337Z,2.00
2017-12-27T08:09:03.329Z,1.70
2017-12-27T08:10:03.324Z,1.70
2017-12-27T08:11:03.317Z,1.70
2017-12-27T08:12:03.311Z,1.70
2017-12-27T08:13:03.303Z,1.50
2017-12-27T08:14:03.298Z,1.60
2017-12-27T08:15:03.322Z,1.60
2017-12-27T08:16:03.284Z,1.90
2017-12-27T08:17:03.278Z,1.80
2017-12-27T08:18:03.271Z,1.70
2017-12-27T08:19:03.265Z,1.70
2017-12-27T08:20:03.260Z,1.40
2017-12-27T08:21:03.252Z,1.30
2017-12-27T08:22:03.246Z,1.90
2017-12-27T08:23:03.239Z,1.60
2017-12-27T08:24:03.233Z,1.60
2017-12-27T08:25:03.228Z,1.90
2017-12-27T08:26:03.220Z,1.60
2017-12-27T08:27:03.215Z,1.60
2017-12-27T08:28:03.209Z,1.70
2017-12-27T08:29:03.202Z,1.70
2017-12-27T08:30:03.199Z,2.00
2017-12-27T08:31:03.189Z,2.00
2017-12-27T08:32:03.183Z,2.00
2017-12-27T08:33:03.177Z,2.00
2017-12-27T08:34:03.179Z,2.40
2017-12-27T08:35:03.166Z,2.80
2017-12-27T08:36:03.160Z,2.30
2017-12-27T08:37:03.153Z,2.20
2017-12-27T08:38:03.146Z,2.10
2017-12-27T08:39:03.140Z,2.00
2017-12-27T08:40:03.136Z,2.20
2017-12-27T08:41:03.130Z,2.50
2017-12-27T08:42:03.122Z,2.50
2017-12-27T08:43:03.116Z,2.20
2017-12-27T08:44:03.110Z,1.90
2017-12-27T08:45:03.104Z,2.20
2017-12-27T08:46:03.098Z,2.90
2017-12-27T08:47:03.092Z,2.00
2017-12-27T08:48:03.087Z,2.30
2017-12-27T08:49:03.081Z,2.20
2017-12-27T08:50:03.075Z,2.40
2017-12-27T08:51:03.069Z,2.60
2017-12-27T08:52:03.061Z,2.30
2017-12-27T08:53:03.057Z,1.90
2017-12-27T08:54:03.050Z,2.90
2017-12-27T08:55:03.045Z,2.60
2017-12-27T08:56:03.038Z,2.30
2017-12-27T08:57:03.033Z,2.00
2017-12-27T08:58:03.027Z,2.40
2017-12-27T08:59:03.021Z,2.40
2017-12-27T09:00:03.016Z,2.40
2017-12-27T09:01:03.011Z,2.10
2017-12-27T09:02:03.004Z,1.80
2017-12-27T09:03:03.000Z,1.80
2017-12-27T09:04:02.994Z,1.80
2017-12-27T09:05:02.987Z,2.40
2017-12-27T09:06:02.982Z,2.90
2017-12-27T09:07:02.977Z,3.20
2017-12-27T09:08:02.971Z,2.90
2017-12-27T09:09:02.966Z,3.40
2017-12-27T09:10:02.960Z,2.40
2017-12-27T09:11:02.955Z,3.10
2017-12-27T09:12:02.951Z,2.50
2017-12-27T09:13:02.945Z,2.70
2017-12-27T09:14:02.939Z,2.60
2017-12-27T09:15:02.933Z,2.90
2017-12-27T09:16:02.933Z,2.90
2017-12-27T09:17:02.925Z,3.70
2017-12-27T09:18:02.918Z,2.90
2017-12-27T09:19:02.914Z,2.30
2017-12-27T09:20:02.908Z,2.20
2017-12-27T09:21:02.904Z,2.10
2017-12-27T09:22:02.898Z,2.40
2017-12-27T09:23:02.893Z,2.30
2017-12-27T09:24:02.890Z,2.10
2017-12-27T09:25:02.884Z,2.50
2017-12-27T09:26:02.879Z,2.50
2017-12-27T09:27:02.875Z,2.40
2017-12-27T09:28:02.870Z,2.60
2017-12-27T09:29:02.865Z,2.80
2017-12-27T09:30:02.860Z,2.80
2017-12-27T09:31:02.856Z,3.20
2017-12-27T09:32:02.851Z,3.10
2017-12-27T09:33:02.848Z,3.40
2017-12-27T09:34:02.842Z,2.90
2017-12-27T09:35:02.840Z,2.60
2017-12-27T09:36:02.833Z,2.30
2017-12-27T09:37:02.830Z,2.30
2017-12-27T09:38:02.824Z,2.30
2017-12-27T09:39:02.819Z,2.00
2017-12-27T09:40:02.817Z,3.70
2017-12-27T09:41:02.812Z,2.40
2017-12-27T09:42:02.806Z,2.50
2017-12-27T09:43:02.802Z,2.10
2017-12-27T09:44:02.799Z,1.90
2017-12-27T09:45:02.796Z,2.90
2017-12-27T09:46:02.788Z,2.10
2017-12-27T09:47:02.785Z,2.00
2017-12-27T09:48:02.780Z,2.20
2017-12-27T09:49:02.776Z,2.40
2017-12-27T09:50:02.772Z,2.60
2017-12-27T09:51:02.768Z,3.30
2017-12-27T09:52:02.764Z,4.20
2017-12-27T09:53:02.762Z,4.10
2017-12-27T09:54:02.754Z,2.90
2017-12-27T09:55:02.752Z,3.50
2017-12-27T09:56:02.748Z,3.10
2017-12-27T09:57:02.744Z,3.00
2017-12-27T09:58:02.740Z,2.10
2017-12-27T09:59:02.735Z,2.40
2017-12-27T10:00:02.732Z,2.10
2017-12-27T10:01:02.729Z,2.20
2017-12-27T10:02:02.723Z,2.50
2017-12-27T10:03:02.720Z,2.70
2017-12-27T10:04:02.717Z,3.10
2017-12-27T10:05:02.713Z,2.40
2017-12-27T10:06:02.709Z,2.60
2017-12-27T10:07:02.705Z,2.70
2017-12-27T10:08:02.703Z,2.40
2017-12-27T10:09:02.700Z,2.10
2017-12-27T10:10:02.695Z,2.30
2017-12-27T10:11:02.691Z,1.90
2017-12-27T10:12:02.687Z,2.10
2017-12-27T10:13:02.685Z,2.60
2017-12-27T10:14:02.679Z,2.30
2017-12-27T10:15:02.677Z,2.10
2017-12-27T10:16:02.672Z,2.30
2017-12-27T10:17:02.671Z,2.50
2017-12-27T10:18:02.666Z,3.00
2017-12-27T10:19:02.663Z,3.10
2017-12-27T10:20:02.658Z,2.60
2017-12-27T10:21:02.657Z,2.70
2017-12-27T10:22:02.652Z,2.50
2017-12-27T10:23:02.647Z,2.80
2017-12-27T10:24:02.644Z,3.70
2017-12-27T10:25:02.641Z,4.80
2017-12-27T10:26:02.638Z,4.40
2017-12-27T10:27:02.635Z,3.30
2017-12-27T10:28:02.632Z,2.70
2017-12-27T10:29:02.628Z,3.10
2017-12-27T10:30:02.623Z,2.60
2017-12-27T10:31:02.622Z,2.10
2017-12-27T10:32:02.618Z,2.20
2017-12-27T10:33:02.615Z,2.10
2017-12-27T10:34:02.620Z,2.10
2017-12-27T10:35:02.609Z,2.10
2017-12-27T10:36:02.607Z,1.60
2017-12-27T10:37:02.605Z,1.50
2017-12-27T10:38:02.601Z,1.70
2017-12-27T10:39:02.601Z,1.70
2017-12-27T10:40:02.599Z,1.80
2017-12-27T10:41:02.598Z,1.50
2017-12-27T10:42:02.602Z,1.60
2017-12-27T10:43:02.596Z,1.70
2017-12-27T10:44:02.598Z,1.60
2017-12-27T10:45:02.598Z,1.60
2017-12-27T10:46:02.598Z,1.80
2017-12-27T10:47:02.599Z,1.40
2017-12-27T10:48:02.601Z,1.60
2017-12-27T10:49:02.604Z,1.60
2017-12-27T10:50:02.606Z,1.40
2017-12-27T10:51:02.609Z,1.60
2017-12-27T10:52:02.620Z,1.90
2017-12-27T10:53:02.615Z,1.70
2017-12-27T10:54:02.618Z,1.50
2017-12-27T10:55:02.622Z,1.70
2017-12-27T10:56:02.635Z,1.60
2017-12-27T10:57:02.631Z,1.90
2017-12-27T10:58:02.634Z,1.90
2017-12-27T10:59:02.638Z,2.30
2017-12-27T11:00:02.645Z,2.20
2017-12-27T11:01:02.648Z,2.10
2017-12-27T11:02:02.651Z,2.80
2017-12-27T11:03:02.657Z,2.30
2017-12-27T11:04:02.664Z,2.30
2017-12-27T11:05:02.669Z,2.90
2017-12-27T11:06:02.672Z,4.00
2017-12-27T11:07:02.678Z,3.30
2017-12-27T11:08:02.686Z,3.00
2017-12-27T11:09:02.689Z,3.00
2017-12-27T11:10:02.694Z,3.10
2017-12-27T11:11:02.699Z,2.50
2017-12-27T11:12:02.707Z,2.50
2017-12-27T11:13:02.709Z,2.50
2017-12-27T11:14:02.713Z,3.10
2017-12-27T11:15:02.719Z,3.10
2017-12-27T11:16:02.724Z,2.70
2017-12-27T11:17:02.729Z,2.70
2017-12-27T11:18:02.734Z,2.20
2017-12-27T11:19:02.740Z,2.60
2017-12-27T11:20:02.746Z,3.40
2017-12-27T11:21:02.748Z,3.20
2017-12-27T11:22:02.754Z,3.20
2017-12-27T11:23:02.760Z,2.50
2017-12-27T11:24:02.767Z,2.60
2017-12-27T11:25:02.773Z,2.90
2017-12-27T11:26:02.774Z,3.00
2017-12-27T11:27:02.781Z,2.90
2017-12-27T11:28:02.787Z,3.70
2017-12-27T11:29:02.793Z,3.70
2017-12-27T11:30:02.799Z,3.90
2017-12-27T11:31:02.803Z,3.80
2017-12-27T11:32:02.808Z,3.90
2017-12-27T11:33:02.816Z,4.70
2017-12-27T11:34:02.821Z,6.90
2017-12-27T11:35:02.826Z,5.70
2017-12-27T11:36:02.831Z,6.90
2017-12-27T11:37:02.837Z,7.60
2017-12-27T11:38:02.840Z,7.10
2017-12-27T11:39:02.852Z,6.50
2017-12-27T11:40:02.851Z,7.50
2017-12-27T11:41:02.856Z,6.40
2017-12-27T11:42:02.859Z,6.80
2017-12-27T11:43:02.864Z,7.20
2017-12-27T11:44:02.868Z,8.40
2017-12-27T11:45:02.876Z,7.70
2017-12-27T11:46:02.876Z,7.30
2017-12-27T11:47:02.881Z,6.90
2017-12-27T11:48:02.884Z,6.90
2017-12-27T11:49:02.889Z,5.30
2017-12-27T11:50:02.892Z,5.50
2017-12-27T11:51:02.895Z,6.90
2017-12-27T11:52:02.908Z,7.20
2017-12-27T11:53:02.904Z,6.40
2017-12-27T11:54:02.905Z,6.30
2017-12-27T11:55:02.910Z,5.80
2017-12-27T11:56:02.912Z,5.60
2017-12-27T11:57:02.915Z,5.00
2017-12-27T11:58:02.921Z,4.90
2017-12-27T11:59:02.922Z,5.10
2017-12-27T12:00:02.926Z,4.60
2017-12-27T12:01:02.928Z,4.80
2017-12-27T12:02:02.928Z,4.70
2017-12-27T12:03:02.931Z,4.80
2017-12-27T12:04:02.935Z,4.70
2017-12-27T12:05:02.936Z,4.80
2017-12-27T12:06:02.939Z,4.50
2017-12-27T12:07:02.939Z,5.50
2017-12-27T12:08:02.941Z,5.60
2017-12-27T12:09:02.944Z,5.90
2017-12-27T12:10:02.945Z,7.10
2017-12-27T12:11:02.947Z,6.30
2017-12-27T12:12:02.948Z,5.50
2017-12-27T12:13:02.951Z,4.90
2017-12-27T12:14:02.950Z,4.20
2017-12-27T12:15:02.953Z,4.90
2017-12-27T12:16:02.953Z,4.10
2017-12-27T12:17:02.956Z,4.20
2017-12-27T12:18:02.957Z,6.00
2017-12-27T12:19:02.958Z,6.30
2017-12-27T12:20:02.961Z,5.40
2017-12-27T12:21:02.962Z,5.40
2017-12-27T12:22:02.964Z,5.20
2017-12-27T12:23:02.966Z,5.60
2017-12-27T12:24:02.967Z,5.50
2017-12-27T12:25:02.970Z,5.10
2017-12-27T12:26:02.972Z,5.50
2017-12-27T12:27:02.973Z,5.90
2017-12-27T12:28:02.976Z,6.00
2017-12-27T12:29:02.978Z,6.20
2017-12-27T12:30:02.980Z,6.00
2017-12-27T12:31:02.981Z,6.40
2017-12-27T12:32:02.983Z,5.90
2017-12-27T12:33:02.984Z,4.40
2017-12-27T12:34:02.985Z,5.80
2017-12-27T12:35:02.988Z,5.60
2017-12-27T12:36:02.992Z,5.80
2017-12-27T12:37:02.992Z,6.00
2017-12-27T12:38:02.994Z,4.90
2017-12-27T12:39:02.997Z,5.00
2017-12-27T12:40:02.999Z,6.00
2017-12-27T12:41:03.001Z,5.30
2017-12-27T12:42:03.002Z,5.50
2017-12-27T12:43:03.003Z,5.90
2017-12-27T12:44:03.005Z,5.70
2017-12-27T12:45:03.007Z,5.00
2017-12-27T12:46:03.006Z,5.00
2017-12-27T12:47:03.009Z,4.90
2017-12-27T12:48:03.011Z,5.10
2017-12-27T12:49:03.012Z,4.10
2017-12-27T12:50:03.012Z,4.90
2017-12-27T12:51:03.013Z,5.50
2017-12-27T12:52:03.015Z,4.40
2017-12-27T12:53:03.016Z,4.40
2017-12-27T12:54:03.016Z,4.90
2017-12-27T12:55:03.018Z,4.70
2017-12-27T12:56:03.019Z,4.40
2017-12-27T12:57:03.021Z,10.20
2017-12-27T12:58:03.020Z,8.60
2017-12-27T12:59:03.024Z,4.80
2017-12-27T13:00:03.021Z,4.30
2017-12-27T13:01:03.044Z,3.40
2017-12-27T13:02:03.023Z,3.70
2017-12-27T13:03:03.024Z,4.10
2017-12-27T13:04:03.026Z,3.50
2017-12-27T13:05:03.024Z,4.20
2017-12-27T13:06:03.026Z,3.90
2017-12-27T13:07:03.024Z,3.40
2017-12-27T13:08:03.024Z,3.40
2017-12-27T13:09:03.024Z,3.60
2017-12-27T13:10:03.026Z,3.80
2017-12-27T13:11:03.022Z,3.60
2017-12-27T13:12:03.022Z,3.40
2017-12-27T13:13:03.022Z,4.20
2017-12-27T13:14:03.024Z,6.00
2017-12-27T13:15:03.021Z,5.30
2017-12-27T13:16:03.020Z,4.40
2017-12-27T13:17:03.018Z,4.10
2017-12-27T13:18:03.017Z,3.80